Time;durP1;ratioP1;P1;durP2;ratioP2;P2;SDS_P1;SDS_P2;PMS_P1;PMS_P2;Temp;Humidity;BMP_temperature;BMP_pressure;BME280_temperature;BME280_humidity;BME280_pressure;Samples;Min_cycle;Max_cycle;Signal;HPM_P1;HPM_P2
2023/12/13 00:01:46;;;;;;;37.92;34.55;;;;;;;;;;5018717;28;25061;-75
2023/12/13 00:04:12;;;;;;;37.80;34.03;;;;;;;;;;5023658;28;25054;-72
2023/12/13 00:06:39;;;;;;;35.20;31.98;;;;;;;;;;5020268;28;25063;-73
2023/12/13 00:09:08;;;;;;;36.22;33.03;;;;;;;;;;5022976;28;25110;-72
2023/12/13 00:11:34;;;;;;;37.95;34.50;;;;;;;;;;5025759;28;25066;-72
2023/12/13 00:14:00;;;;;;;35.30;31.98;;;;;;;;;;5018138;28;25083;-72
2023/12/13 00:16:26;;;;;;;35.97;32.65;;;;;;;;;;5021519;28;25078;-74
2023/12/13 00:18:52;;;;;;;34.20;31.02;;;;;;;;;;5019579;28;25102;-73
2023/12/13 00:21:18;;;;;;;34.72;31.35;;;;;;;;;;5018675;28;25085;-73
2023/12/13 00:23:45;;;;;;;35.83;32.22;;;;;;;;;;5019281;28;25135;-72
2023/12/13 00:26:19;;;;;;;34.28;31.30;;;;;;;;;;5020281;28;25112;-72
2023/12/13 00:28:45;;;;;;;32.72;30.10;;;;;;;;;;5015926;28;25068;-73
2023/12/13 00:31:12;;;;;;;34.13;30.92;;;;;;;;;;5018072;28;25068;-73
2023/12/13 00:33:40;;;;;;;35.55;31.90;;;;;;;;;;5016100;28;25054;-72
2023/12/13 00:36:07;;;;;;;33.53;30.60;;;;;;;;;;5011906;28;25101;-72
2023/12/13 00:38:33;;;;;;;35.55;31.92;;;;;;;;;;5019668;28;25116;-72
2023/12/13 00:40:59;;;;;;;33.78;30.52;;;;;;;;;;5021191;28;25090;-74
2023/12/13 00:43:24;;;;;;;32.95;30.17;;;;;;;;;;5020995;28;25086;-72
2023/12/13 00:45:50;;;;;;;31.20;28.33;;;;;;;;;;5019560;28;25096;-71
2023/12/13 00:48:17;;;;;;;32.22;29.30;;;;;;;;;;5015851;28;25069;-72
2023/12/13 00:50:43;;;;;;;32.55;29.75;;;;;;;;;;5014966;28;25107;-71
2023/12/13 00:53:09;;;;;;;31.42;28.92;;;;;;;;;;5016276;28;25155;-72
2023/12/13 00:55:35;;;;;;;33.13;30.05;;;;;;;;;;5017294;28;25158;-73
2023/12/13 00:58:01;;;;;;;30.88;28.25;;;;;;;;;;5014416;28;25074;-72
2023/12/13 01:00:27;;;;;;;31.08;28.50;;;;;;;;;;5014758;28;25158;-71
2023/12/13 01:02:53;;;;;;;31.42;28.45;;;;;;;;;;5030668;28;25058;-72
2023/12/13 01:05:19;;;;;;;30.95;27.90;;;;;;;;;;5012917;28;25075;-71
2023/12/13 01:07:45;;;;;;;28.85;26.65;;;;;;;;;;5014101;28;25091;-72
2023/12/13 01:10:11;;;;;;;29.30;27.13;;;;;;;;;;5017353;28;25068;-72
2023/12/13 01:12:37;;;;;;;30.05;27.23;;;;;;;;;;5016286;28;25063;-72
2023/12/13 01:15:03;;;;;;;27.23;25.33;;;;;;;;;;5016084;28;25098;-72
2023/12/13 01:17:32;;;;;;;27.88;25.45;;;;;;;;;;5010009;28;25133;-72
2023/12/13 01:19:58;;;;;;;27.83;25.60;;;;;;;;;;5018468;28;25101;-72
2023/12/13 01:22:24;;;;;;;28.35;25.98;;;;;;;;;;5014885;28;25100;-72
2023/12/13 01:24:50;;;;;;;27.65;25.33;;;;;;;;;;5016819;28;25110;-71
2023/12/13 01:27:16;;;;;;;26.98;24.88;;;;;;;;;;5015256;28;25072;-72
2023/12/13 01:29:42;;;;;;;28.27;25.80;;;;;;;;;;5011682;28;25076;-72
2023/12/13 01:32:08;;;;;;;28.25;26.00;;;;;;;;;;5013240;28;25154;-72
2023/12/13 01:34:34;;;;;;;28.60;26.50;;;;;;;;;;5017945;28;25073;-71
2023/12/13 01:37:02;;;;;;;28.95;26.73;;;;;;;;;;5013841;28;25069;-71
2023/12/13 01:39:28;;;;;;;28.58;26.58;;;;;;;;;;5015631;28;25066;-72
2023/12/13 01:41:54;;;;;;;27.58;25.50;;;;;;;;;;5012619;28;25055;-72
2023/12/13 01:44:20;;;;;;;27.90;26.13;;;;;;;;;;5014745;28;25080;-71
2023/12/13 01:46:46;;;;;;;29.10;26.73;;;;;;;;;;5007230;28;25084;-71
2023/12/13 01:49:12;;;;;;;30.70;28.08;;;;;;;;;;5012223;28;25060;-72
2023/12/13 01:51:39;;;;;;;29.38;27.00;;;;;;;;;;5013523;28;25047;-71
2023/12/13 01:54:06;;;;;;;29.40;27.10;;;;;;;;;;5013051;28;25160;-72
2023/12/13 01:56:33;;;;;;;29.35;27.33;;;;;;;;;;5011987;28;25092;-72
2023/12/13 01:58:59;;;;;;;30.73;28.17;;;;;;;;;;5012947;28;25079;-72
2023/12/13 02:01:25;;;;;;;30.17;27.70;;;;;;;;;;5014258;28;25129;-72
2023/12/13 02:03:51;;;;;;;30.98;27.95;;;;;;;;;;5013475;28;25132;-72
2023/12/13 02:06:17;;;;;;;33.97;30.63;;;;;;;;;;5012581;28;25086;-72
2023/12/13 02:08:43;;;;;;;33.53;30.65;;;;;;;;;;5013967;28;25059;-71
2023/12/13 02:11:09;;;;;;;33.28;30.33;;;;;;;;;;5014154;28;25050;-73
2023/12/13 02:13:35;;;;;;;32.13;29.35;;;;;;;;;;5016606;28;25159;-73
2023/12/13 02:16:02;;;;;;;35.70;32.45;;;;;;;;;;5016489;28;25105;-72
2023/12/13 02:18:28;;;;;;;37.42;33.58;;;;;;;;;;5012767;28;25075;-71
2023/12/13 02:20:55;;;;;;;36.67;33.45;;;;;;;;;;5009674;28;25063;-73
2023/12/13 02:23:20;;;;;;;38.22;34.55;;;;;;;;;;5016546;28;25090;-72
2023/12/13 02:26:02;;;;;;;40.53;36.50;;;;;;;;;;5013210;28;25096;-71
2023/12/13 02:28:29;;;;;;;41.40;37.10;;;;;;;;;;5017330;28;25130;-73
2023/12/13 02:30:56;;;;;;;38.17;35.10;;;;;;;;;;5010234;28;25145;-72
2023/12/13 02:33:25;;;;;;;38.80;35.22;;;;;;;;;;5015141;28;25075;-73
2023/12/13 02:35:56;;;;;;;38.90;35.13;;;;;;;;;;5015067;28;25126;-71
2023/12/13 02:38:22;;;;;;;35.13;32.33;;;;;;;;;;5011564;28;25054;-72
2023/12/13 02:40:48;;;;;;;39.42;35.63;;;;;;;;;;5014264;28;25065;-72
2023/12/13 02:43:14;;;;;;;43.45;35.40;;;;;;;;;;5015320;28;25110;-72
2023/12/13 02:45:40;;;;;;;36.58;33.08;;;;;;;;;;5035676;28;25145;-73
2023/12/13 02:48:06;;;;;;;36.92;33.60;;;;;;;;;;5013811;28;25051;-70
2023/12/13 02:50:36;;;;;;;36.53;32.92;;;;;;;;;;5014524;28;25073;-73
2023/12/13 02:53:02;;;;;;;36.55;33.13;;;;;;;;;;5012210;28;25074;-73
2023/12/13 02:55:28;;;;;;;37.78;34.08;;;;;;;;;;5017720;28;25067;-72
2023/12/13 02:57:54;;;;;;;39.28;35.38;;;;;;;;;;5016256;28;25063;-71
2023/12/13 03:00:21;;;;;;;38.60;34.67;;;;;;;;;;5011653;28;25067;-73
2023/12/13 03:02:47;;;;;;;36.08;32.60;;;;;;;;;;5006734;28;25137;-73
2023/12/13 03:05:13;;;;;;;35.92;32.33;;;;;;;;;;5007043;28;25072;-73
2023/12/13 03:07:42;;;;;;;35.38;32.17;;;;;;;;;;5005903;28;25098;-72
2023/12/13 03:10:08;;;;;;;36.03;32.33;;;;;;;;;;5006959;28;25073;-72
2023/12/13 03:12:34;;;;;;;35.45;31.98;;;;;;;;;;5007872;28;25088;-71
2023/12/13 03:15:00;;;;;;;38.55;34.45;;;;;;;;;;5006999;28;25102;-72
2023/12/13 03:17:26;;;;;;;34.90;31.52;;;;;;;;;;5006837;28;25093;-72
2023/12/13 03:19:52;;;;;;;35.33;32.10;;;;;;;;;;5010885;28;25054;-72
2023/12/13 03:22:18;;;;;;;38.75;34.83;;;;;;;;;;5011009;28;25064;-72
2023/12/13 03:24:44;;;;;;;37.40;33.75;;;;;;;;;;5012807;28;25057;-72
2023/12/13 03:27:10;;;;;;;35.40;31.42;;;;;;;;;;5005853;28;25058;-70
2023/12/13 03:29:36;;;;;;;38.63;34.58;;;;;;;;;;5008003;28;25052;-72
2023/12/13 03:32:02;;;;;;;41.30;33.78;;;;;;;;;;5011415;28;25047;-71
2023/12/13 03:34:27;;;;;;;37.00;33.20;;;;;;;;;;5012875;28;25066;-72
2023/12/13 03:36:53;;;;;;;36.00;32.33;;;;;;;;;;5014002;28;25072;-71
2023/12/13 03:39:19;;;;;;;37.72;33.78;;;;;;;;;;5010998;28;25052;-72
2023/12/13 03:41:45;;;;;;;39.40;33.58;;;;;;;;;;5013273;28;25161;-74
2023/12/13 03:44:11;;;;;;;35.33;31.70;;;;;;;;;;5012642;28;25071;-71
2023/12/13 03:46:37;;;;;;;37.50;33.42;;;;;;;;;;5012023;28;25082;-71
2023/12/13 03:49:03;;;;;;;37.72;32.72;;;;;;;;;;5013339;28;25109;-72
2023/12/13 03:51:30;;;;;;;39.30;33.03;;;;;;;;;;5006938;28;25073;-73
2023/12/13 03:53:56;;;;;;;36.80;32.25;;;;;;;;;;5005181;28;25082;-72
2023/12/13 03:56:22;;;;;;;36.58;32.75;;;;;;;;;;5018378;28;25096;-72
2023/12/13 03:58:48;;;;;;;35.88;32.05;;;;;;;;;;5004563;28;25067;-72
2023/12/13 04:01:13;;;;;;;37.17;33.22;;;;;;;;;;5007101;28;25166;-72
2023/12/13 04:03:39;;;;;;;40.75;32.42;;;;;;;;;;5007194;28;25144;-73
2023/12/13 04:06:06;;;;;;;33.65;29.77;;;;;;;;;;5004584;28;25058;-72
2023/12/13 04:08:31;;;;;;;36.72;31.92;;;;;;;;;;5004288;28;25073;-74
2023/12/13 04:10:57;;;;;;;34.78;31.00;;;;;;;;;;5003739;28;25049;-71
2023/12/13 04:13:23;;;;;;;37.55;31.05;;;;;;;;;;5006949;28;25080;-72
2023/12/13 04:15:50;;;;;;;35.47;31.55;;;;;;;;;;5009971;28;25066;-72
2023/12/13 04:18:16;;;;;;;35.47;31.08;;;;;;;;;;5004987;28;25056;-72
2023/12/13 04:20:42;;;;;;;33.95;30.38;;;;;;;;;;5004198;28;25072;-72
2023/12/13 04:23:08;;;;;;;33.53;30.15;;;;;;;;;;5011183;28;25077;-73
2023/12/13 04:25:34;;;;;;;34.70;31.15;;;;;;;;;;5007616;28;25099;-72
2023/12/13 04:28:00;;;;;;;35.67;32.13;;;;;;;;;;5005290;28;25078;-73
2023/12/13 04:30:26;;;;;;;35.58;31.73;;;;;;;;;;5005600;28;25073;-73
2023/12/13 04:32:52;;;;;;;43.75;32.92;;;;;;;;;;5002900;28;25047;-73
2023/12/13 04:35:17;;;;;;;35.33;31.90;;;;;;;;;;5004704;28;25068;-73
2023/12/13 04:37:43;;;;;;;34.67;31.10;;;;;;;;;;5005840;28;25061;-73
2023/12/13 04:40:10;;;;;;;42.33;31.92;;;;;;;;;;5005089;28;25071;-73
2023/12/13 04:42:36;;;;;;;40.78;31.50;;;;;;;;;;5006238;28;25045;-73
2023/12/13 04:45:02;;;;;;;37.85;29.33;;;;;;;;;;5011050;28;25056;-73
2023/12/13 04:47:28;;;;;;;34.20;30.02;;;;;;;;;;5003055;28;25089;-72
2023/12/13 04:49:54;;;;;;;34.95;29.60;;;;;;;;;;5006390;28;25095;-74
2023/12/13 04:52:20;;;;;;;40.63;32.25;;;;;;;;;;5001254;28;25073;-72
2023/12/13 04:54:46;;;;;;;34.55;31.00;;;;;;;;;;5005918;28;25080;-73
2023/12/13 04:57:12;;;;;;;40.15;31.73;;;;;;;;;;5003337;28;25048;-73
2023/12/13 04:59:38;;;;;;;32.83;29.67;;;;;;;;;;5006086;28;25077;-73
2023/12/13 05:02:04;;;;;;;35.13;31.58;;;;;;;;;;5005423;28;25091;-73
2023/12/13 05:04:30;;;;;;;39.78;29.75;;;;;;;;;;5004002;28;25062;-73
2023/12/13 05:06:56;;;;;;;35.45;30.70;;;;;;;;;;5006032;28;25062;-73
2023/12/13 05:09:22;;;;;;;40.67;30.05;;;;;;;;;;5004307;28;25070;-73
2023/12/13 05:11:48;;;;;;;39.78;31.55;;;;;;;;;;5002569;28;25048;-73
2023/12/13 05:14:14;;;;;;;39.58;31.95;;;;;;;;;;5003501;28;25145;-72
2023/12/13 05:16:40;;;;;;;34.00;29.98;;;;;;;;;;5003668;28;25082;-73
2023/12/13 05:19:06;;;;;;;39.55;30.88;;;;;;;;;;5007110;28;25090;-72
2023/12/13 05:21:32;;;;;;;37.65;30.23;;;;;;;;;;5000161;28;25070;-73
2023/12/13 05:23:58;;;;;;;44.20;31.92;;;;;;;;;;5005009;28;25078;-72
2023/12/13 05:26:24;;;;;;;33.97;30.55;;;;;;;;;;5003804;28;25067;-73
2023/12/13 05:28:49;;;;;;;33.53;28.60;;;;;;;;;;5001518;28;25067;-72
2023/12/13 05:31:24;;;;;;;37.80;30.08;;;;;;;;;;5005037;28;25082;-72
2023/12/13 05:33:51;;;;;;;41.47;29.50;;;;;;;;;;5002216;28;25101;-73
2023/12/13 05:36:17;;;;;;;44.83;31.08;;;;;;;;;;5003602;28;25068;-72
2023/12/13 05:38:46;;;;;;;35.92;28.73;;;;;;;;;;5005452;28;25080;-74
2023/12/13 05:41:12;;;;;;;39.38;29.63;;;;;;;;;;5012373;28;25055;-73
2023/12/13 05:43:38;;;;;;;34.95;30.92;;;;;;;;;;5005910;28;25084;-73
2023/12/13 05:46:04;;;;;;;33.85;30.27;;;;;;;;;;5004489;28;25072;-73
2023/12/13 05:48:31;;;;;;;41.13;31.20;;;;;;;;;;5004709;28;25064;-73
2023/12/13 05:50:57;;;;;;;43.28;33.28;;;;;;;;;;5003996;28;25065;-72
2023/12/13 05:53:23;;;;;;;37.92;32.83;;;;;;;;;;5009579;28;25069;-73
2023/12/13 05:55:49;;;;;;;51.70;33.38;;;;;;;;;;5007389;28;25123;-74
2023/12/13 05:58:15;;;;;;;44.70;34.58;;;;;;;;;;5006773;28;25052;-74
2023/12/13 06:00:41;;;;;;;48.65;34.80;;;;;;;;;;5005546;28;25065;-74
2023/12/13 06:03:07;;;;;;;40.83;34.67;;;;;;;;;;5002370;28;25156;-74
2023/12/13 06:05:33;;;;;;;42.47;34.33;;;;;;;;;;5002649;28;25106;-74
2023/12/13 06:07:59;;;;;;;49.55;35.13;;;;;;;;;;5003508;28;25070;-73
2023/12/13 06:10:25;;;;;;;41.53;35.63;;;;;;;;;;5005743;28;25050;-72
2023/12/13 06:12:52;;;;;;;38.75;33.03;;;;;;;;;;5003429;28;25074;-73
2023/12/13 06:15:21;;;;;;;42.67;32.22;;;;;;;;;;5001603;28;25103;-74
2023/12/13 06:17:47;;;;;;;39.17;32.15;;;;;;;;;;5004209;28;25105;-74
2023/12/13 06:20:13;;;;;;;42.58;32.25;;;;;;;;;;5013907;28;25060;-73
2023/12/13 06:22:39;;;;;;;46.33;30.95;;;;;;;;;;5008166;28;25079;-73
2023/12/13 06:25:05;;;;;;;46.13;32.50;;;;;;;;;;5003159;28;25075;-73
2023/12/13 06:27:31;;;;;;;38.40;33.47;;;;;;;;;;5001586;28;25093;-72
2023/12/13 06:29:57;;;;;;;56.33;35.17;;;;;;;;;;4999208;28;25088;-72
2023/12/13 06:32:23;;;;;;;45.70;32.58;;;;;;;;;;5000266;28;25110;-73
2023/12/13 06:34:49;;;;;;;36.10;30.13;;;;;;;;;;4999595;28;25131;-73
2023/12/13 06:37:15;;;;;;;53.30;35.25;;;;;;;;;;5000690;28;25059;-73
2023/12/13 06:39:41;;;;;;;40.45;32.78;;;;;;;;;;5002903;28;25120;-72
2023/12/13 06:42:09;;;;;;;38.25;31.10;;;;;;;;;;5012488;28;25059;-73
2023/12/13 06:44:39;;;;;;;45.42;33.15;;;;;;;;;;5003641;28;25149;-73
2023/12/13 06:47:05;;;;;;;43.05;30.83;;;;;;;;;;4999182;28;25068;-72
2023/12/13 06:49:32;;;;;;;47.47;33.25;;;;;;;;;;5001704;28;25079;-73
2023/12/13 06:51:58;;;;;;;40.17;31.58;;;;;;;;;;4997888;28;25098;-74
2023/12/13 06:54:24;;;;;;;51.20;35.80;;;;;;;;;;5003541;28;25068;-73
2023/12/13 06:56:50;;;;;;;46.72;32.83;;;;;;;;;;5000309;28;25154;-74
2023/12/13 06:59:16;;;;;;;41.90;33.15;;;;;;;;;;5003133;28;25084;-74
2023/12/13 07:01:42;;;;;;;49.90;34.00;;;;;;;;;;5006694;28;25101;-73
2023/12/13 07:04:09;;;;;;;46.42;33.58;;;;;;;;;;5008644;28;25086;-73
2023/12/13 07:06:35;;;;;;;54.03;34.38;;;;;;;;;;5007801;28;25047;-72
2023/12/13 07:09:02;;;;;;;40.92;36.33;;;;;;;;;;5002287;28;25165;-73
2023/12/13 07:11:28;;;;;;;59.47;42.55;;;;;;;;;;5018864;28;25146;-73
2023/12/13 07:13:54;;;;;;;64.50;39.90;;;;;;;;;;4993726;28;25057;-73
2023/12/13 07:16:20;;;;;;;47.53;35.22;;;;;;;;;;5007864;28;25085;-73
2023/12/13 07:18:46;;;;;;;50.08;33.60;;;;;;;;;;5005276;28;25139;-72
2023/12/13 07:21:12;;;;;;;50.22;34.55;;;;;;;;;;5001555;28;25039;-73
2023/12/13 07:23:39;;;;;;;52.35;38.05;;;;;;;;;;5006669;28;25125;-73
2023/12/13 07:26:05;;;;;;;54.67;37.90;;;;;;;;;;4996635;28;25156;-74
2023/12/13 07:28:32;;;;;;;52.28;38.00;;;;;;;;;;5007316;28;25089;-73
2023/12/13 07:30:58;;;;;;;47.92;37.92;;;;;;;;;;5003281;28;25070;-75
2023/12/13 07:33:24;;;;;;;55.50;39.47;;;;;;;;;;5007030;28;25131;-73
2023/12/13 07:35:50;;;;;;;53.25;37.67;;;;;;;;;;5005181;28;25176;-74
2023/12/13 07:38:16;;;;;;;55.35;39.15;;;;;;;;;;5001928;28;25119;-74
2023/12/13 07:40:44;;;;;;;41.25;35.13;;;;;;;;;;5006575;28;25079;-74
2023/12/13 07:43:11;;;;;;;50.17;36.78;;;;;;;;;;5002639;28;25051;-73
2023/12/13 07:45:37;;;;;;;54.20;38.75;;;;;;;;;;5023121;28;25139;-73
2023/12/13 07:48:03;;;;;;;50.65;37.88;;;;;;;;;;5007822;28;25095;-75
2023/12/13 07:50:29;;;;;;;52.97;38.63;;;;;;;;;;5006390;28;25101;-72
2023/12/13 07:52:56;;;;;;;54.70;37.75;;;;;;;;;;5005848;28;25152;-73
2023/12/13 07:55:23;;;;;;;53.70;39.17;;;;;;;;;;5008284;28;25057;-73
2023/12/13 07:57:49;;;;;;;55.67;39.53;;;;;;;;;;5000303;28;25064;-73
2023/12/13 08:00:15;;;;;;;48.75;39.53;;;;;;;;;;5002547;28;25071;-73
2023/12/13 08:02:41;;;;;;;50.22;42.05;;;;;;;;;;5003461;28;25062;-72
2023/12/13 08:05:07;;;;;;;48.70;42.10;;;;;;;;;;5007233;28;25055;-72
2023/12/13 08:07:34;;;;;;;57.22;43.75;;;;;;;;;;5002913;28;25063;-73
2023/12/13 08:10:00;;;;;;;42.15;37.72;;;;;;;;;;5006635;28;25077;-74
2023/12/13 08:12:26;;;;;;;43.78;36.65;;;;;;;;;;5005998;28;25062;-72
2023/12/13 08:14:52;;;;;;;60.78;39.70;;;;;;;;;;5009334;28;25076;-72
2023/12/13 08:17:18;;;;;;;53.55;38.30;;;;;;;;;;5004049;28;25057;-73
2023/12/13 08:19:44;;;;;;;49.83;39.88;;;;;;;;;;5010985;28;25081;-73
2023/12/13 08:22:10;;;;;;;62.67;42.78;;;;;;;;;;5004572;28;25068;-72
2023/12/13 08:24:36;;;;;;;47.50;38.55;;;;;;;;;;5018442;28;25062;-73
2023/12/13 08:27:02;;;;;;;48.30;38.47;;;;;;;;;;5033731;28;25082;-73
2023/12/13 08:29:30;;;;;;;47.55;36.80;;;;;;;;;;5025683;28;25075;-73
2023/12/13 08:31:56;;;;;;;41.88;36.63;;;;;;;;;;5027243;28;25045;-74
2023/12/13 08:34:22;;;;;;;51.33;38.00;;;;;;;;;;5026404;28;25094;-73
2023/12/13 08:36:48;;;;;;;51.00;37.47;;;;;;;;;;5024504;28;25063;-73
2023/12/13 08:39:14;;;;;;;47.03;36.20;;;;;;;;;;5025019;28;25086;-74
2023/12/13 08:41:40;;;;;;;44.85;36.85;;;;;;;;;;5023302;28;25073;-74
2023/12/13 08:44:06;;;;;;;48.92;37.28;;;;;;;;;;5013446;28;25082;-73
2023/12/13 08:46:32;;;;;;;45.90;36.92;;;;;;;;;;5010816;28;25062;-74
2023/12/13 08:48:58;;;;;;;41.97;37.35;;;;;;;;;;5009948;28;25079;-74
2023/12/13 08:51:24;;;;;;;48.35;37.47;;;;;;;;;;5005397;28;25094;-72
2023/12/13 08:53:54;;;;;;;42.85;34.97;;;;;;;;;;5002981;28;25068;-73
2023/12/13 08:56:20;;;;;;;41.50;35.50;;;;;;;;;;5006179;28;25139;-74
2023/12/13 08:58:46;;;;;;;47.15;35.42;;;;;;;;;;5001087;28;25097;-73
2023/12/13 09:01:12;;;;;;;42.75;33.42;;;;;;;;;;5000262;28;25085;-75
2023/12/13 09:03:38;;;;;;;39.55;33.78;;;;;;;;;;5001780;28;25078;-73
2023/12/13 09:06:04;;;;;;;35.70;31.30;;;;;;;;;;5003942;28;25058;-73
2023/12/13 09:08:30;;;;;;;42.33;32.15;;;;;;;;;;5003589;28;25063;-74
2023/12/13 09:10:56;;;;;;;45.83;32.55;;;;;;;;;;5004533;28;25135;-73
2023/12/13 09:13:22;;;;;;;45.63;35.03;;;;;;;;;;5006412;28;25110;-73
2023/12/13 09:15:48;;;;;;;39.08;33.95;;;;;;;;;;5003398;28;25140;-73
2023/12/13 09:18:14;;;;;;;40.60;35.70;;;;;;;;;;5004376;28;25158;-74
2023/12/13 09:20:43;;;;;;;40.03;32.67;;;;;;;;;;5005358;28;25141;-73
2023/12/13 09:23:11;;;;;;;38.95;35.03;;;;;;;;;;5005036;28;25132;-73
2023/12/13 09:25:37;;;;;;;41.75;33.90;;;;;;;;;;5007272;28;25135;-74
2023/12/13 09:28:02;;;;;;;39.47;31.75;;;;;;;;;;5005150;28;25098;-76
2023/12/13 09:30:28;;;;;;;36.38;30.67;;;;;;;;;;5004057;28;25091;-73
2023/12/13 09:32:55;;;;;;;36.55;32.85;;;;;;;;;;5008229;28;25048;-73
2023/12/13 09:35:21;;;;;;;38.15;31.85;;;;;;;;;;5009408;28;25068;-74
2023/12/13 09:37:47;;;;;;;39.83;32.40;;;;;;;;;;5004860;28;25135;-74
2023/12/13 09:40:15;;;;;;;41.75;32.40;;;;;;;;;;5004399;28;25118;-74
2023/12/13 09:42:46;;;;;;;33.35;29.63;;;;;;;;;;4999296;28;25078;-74
2023/12/13 09:45:17;;;;;;;34.20;30.60;;;;;;;;;;5005526;28;25142;-74
2023/12/13 09:47:43;;;;;;;32.55;29.20;;;;;;;;;;5004989;28;25131;-74
2023/12/13 09:50:11;;;;;;;43.63;32.85;;;;;;;;;;5002633;28;25077;-73
2023/12/13 09:52:37;;;;;;;43.10;33.17;;;;;;;;;;4997805;28;25092;-73
2023/12/13 09:55:06;;;;;;;47.55;32.28;;;;;;;;;;5000061;28;25081;-73
2023/12/13 09:57:32;;;;;;;39.15;32.60;;;;;;;;;;5003892;28;25056;-74
2023/12/13 09:59:58;;;;;;;45.03;34.17;;;;;;;;;;5003848;28;25054;-73
2023/12/13 10:02:26;;;;;;;40.85;32.63;;;;;;;;;;5005254;28;25092;-73
2023/12/13 10:04:52;;;;;;;37.95;31.63;;;;;;;;;;4998656;28;25153;-73
2023/12/13 10:07:18;;;;;;;42.67;33.13;;;;;;;;;;5000641;28;25131;-74
2023/12/13 10:09:45;;;;;;;45.08;35.08;;;;;;;;;;5002916;28;25158;-74
2023/12/13 10:12:15;;;;;;;38.70;34.50;;;;;;;;;;5004811;28;25058;-73
2023/12/13 10:14:43;;;;;;;36.72;32.92;;;;;;;;;;5004035;28;25046;-74
2023/12/13 10:17:09;;;;;;;33.88;30.17;;;;;;;;;;5000732;28;25081;-72
2023/12/13 10:19:35;;;;;;;39.20;32.90;;;;;;;;;;5003789;28;25074;-74
2023/12/13 10:22:05;;;;;;;41.42;32.80;;;;;;;;;;5004398;28;25080;-73
2023/12/13 10:24:31;;;;;;;38.53;27.85;;;;;;;;;;5003988;28;25080;-73
2023/12/13 10:26:57;;;;;;;34.05;29.30;;;;;;;;;;4999918;28;25133;-73
2023/12/13 10:29:23;;;;;;;36.40;29.58;;;;;;;;;;5002504;28;25067;-73
2023/12/13 10:31:50;;;;;;;37.28;29.10;;;;;;;;;;5007319;28;25052;-73
2023/12/13 10:34:16;;;;;;;36.92;28.77;;;;;;;;;;5002967;28;25121;-73
2023/12/13 10:36:45;;;;;;;38.75;29.73;;;;;;;;;;5005504;28;25110;-72
2023/12/13 10:39:13;;;;;;;40.17;28.52;;;;;;;;;;5005928;28;25048;-72
2023/12/13 10:41:39;;;;;;;36.33;30.75;;;;;;;;;;5003612;28;25053;-73
2023/12/13 10:44:07;;;;;;;43.33;30.10;;;;;;;;;;5003360;28;25076;-72
2023/12/13 10:46:40;;;;;;;42.33;31.35;;;;;;;;;;4995399;28;25071;-74
2023/12/13 10:49:06;;;;;;;;;;;;;;;;;;5000161;28;25090;-73
2023/12/13 10:51:33;;;;;;;37.95;30.40;;;;;;;;;;5002193;28;25074;-72
2023/12/13 10:53:59;;;;;;;36.47;29.15;;;;;;;;;;5002505;28;25117;-73
2023/12/13 10:56:25;;;;;;;40.40;29.30;;;;;;;;;;5000628;28;25077;-75
2023/12/13 10:58:52;;;;;;;33.67;29.33;;;;;;;;;;5000329;28;25071;-74
2023/12/13 11:01:19;;;;;;;38.30;29.40;;;;;;;;;;5003631;28;25091;-74
2023/12/13 11:03:51;;;;;;;37.03;30.95;;;;;;;;;;5003303;28;25158;-74
2023/12/13 11:06:17;;;;;;;40.50;29.63;;;;;;;;;;5002549;28;25088;-73
2023/12/13 11:08:44;;;;;;;37.13;28.38;;;;;;;;;;5017005;28;25070;-71
2023/12/13 11:11:11;;;;;;;31.67;28.27;;;;;;;;;;5000437;28;24710;-72
2023/12/13 11:13:46;;;;;;;30.88;27.65;;;;;;;;;;5002358;28;25068;-73
2023/12/13 11:16:25;;;;;;;36.42;27.80;;;;;;;;;;4999861;28;25123;-73
2023/12/13 11:18:52;;;;;;;29.35;25.92;;;;;;;;;;5003743;28;25144;-73
2023/12/13 11:21:22;;;;;;;29.92;25.60;;;;;;;;;;5003960;28;25084;-73
2023/12/13 11:23:48;;;;;;;30.65;26.25;;;;;;;;;;5001696;28;25064;-74
2023/12/13 11:26:15;;;;;;;36.10;26.65;;;;;;;;;;4998314;28;25061;-74
2023/12/13 11:28:48;;;;;;;33.58;28.05;;;;;;;;;;5001236;28;25096;-73
2023/12/13 11:31:14;;;;;;;;;;;;;;;;;;5001289;28;25068;-73
2023/12/13 11:33:43;;;;;;;31.77;22.55;;;;;;;;;;5000730;28;25061;-72
2023/12/13 11:36:10;;;;;;;30.30;23.48;;;;;;;;;;5000771;28;25086;-73
2023/12/13 11:38:36;;;;;;;30.73;22.48;;;;;;;;;;5003648;28;25109;-74
2023/12/13 11:41:02;;;;;;;34.25;26.42;;;;;;;;;;5005576;28;25072;-72
2023/12/13 11:43:29;;;;;;;35.75;25.88;;;;;;;;;;5006521;28;25070;-73
2023/12/13 11:45:55;;;;;;;33.55;25.63;;;;;;;;;;4998020;28;25139;-74
2023/12/13 11:48:21;;;;;;;27.70;23.10;;;;;;;;;;5008172;28;25144;-73
2023/12/13 11:50:47;;;;;;;31.42;24.83;;;;;;;;;;5006297;28;25144;-73
2023/12/13 11:53:13;;;;;;;32.92;25.05;;;;;;;;;;5002771;28;25126;-73
2023/12/13 11:55:39;;;;;;;33.75;23.90;;;;;;;;;;5005244;28;25134;-73
2023/12/13 11:58:05;;;;;;;29.92;22.25;;;;;;;;;;5006914;28;25069;-73
2023/12/13 12:00:31;;;;;;;26.98;20.80;;;;;;;;;;5008080;28;25156;-73
2023/12/13 12:02:57;;;;;;;37.45;23.60;;;;;;;;;;5007281;28;25073;-73
2023/12/13 12:05:23;;;;;;;24.60;21.95;;;;;;;;;;5008693;28;25054;-73
2023/12/13 12:07:56;;;;;;;30.85;20.67;;;;;;;;;;5004568;28;25058;-73
2023/12/13 12:10:22;;;;;;;;;;;;;;;;;;5008157;28;25076;-73
2023/12/13 12:12:49;;;;;;;26.60;19.55;;;;;;;;;;5021917;28;25057;-73
2023/12/13 12:15:15;;;;;;;32.20;22.13;;;;;;;;;;5007086;28;25051;-73
2023/12/13 12:17:42;;;;;;;30.48;21.05;;;;;;;;;;5005344;28;25095;-72
2023/12/13 12:20:08;;;;;;;25.15;18.77;;;;;;;;;;5003202;28;25121;-73
2023/12/13 12:22:38;;;;;;;30.80;20.58;;;;;;;;;;5006874;28;25055;-73
2023/12/13 12:25:05;;;;;;;33.15;20.83;;;;;;;;;;5007229;28;25064;-73
2023/12/13 12:27:31;;;;;;;28.80;21.67;;;;;;;;;;5000418;28;25093;-72
2023/12/13 12:29:57;;;;;;;31.35;22.48;;;;;;;;;;5002318;28;25146;-72
2023/12/13 12:32:23;;;;;;;29.60;21.42;;;;;;;;;;5007351;28;25058;-73
2023/12/13 12:34:49;;;;;;;33.70;23.38;;;;;;;;;;5006060;28;25145;-73
2023/12/13 12:37:16;;;;;;;26.40;20.50;;;;;;;;;;5005827;28;25116;-73
2023/12/13 12:39:42;;;;;;;30.33;21.75;;;;;;;;;;5020356;28;25067;-72
2023/12/13 12:42:08;;;;;;;27.77;21.88;;;;;;;;;;5004613;28;25136;-74
2023/12/13 12:44:34;;;;;;;29.45;22.48;;;;;;;;;;5005638;28;25063;-73
2023/12/13 12:47:00;;;;;;;29.40;22.80;;;;;;;;;;5006113;28;25067;-73
2023/12/13 12:49:26;;;;;;;30.67;23.92;;;;;;;;;;5006012;28;25054;-73
2023/12/13 12:51:52;;;;;;;32.20;21.98;;;;;;;;;;5006549;28;25071;-73
2023/12/13 12:54:18;;;;;;;28.02;23.13;;;;;;;;;;5005108;28;25057;-72
2023/12/13 12:56:44;;;;;;;30.95;21.52;;;;;;;;;;5005270;28;25051;-73
2023/12/13 12:59:14;;;;;;;29.05;19.90;;;;;;;;;;5002397;28;25069;-72
2023/12/13 13:01:41;;;;;;;30.23;21.25;;;;;;;;;;5005175;28;25138;-72
2023/12/13 13:04:10;;;;;;;39.00;22.80;;;;;;;;;;5003301;28;25071;-73
2023/12/13 13:06:36;;;;;;;31.42;22.95;;;;;;;;;;5007244;28;25117;-73
2023/12/13 13:09:03;;;;;;;22.42;20.08;;;;;;;;;;5005882;28;25091;-72
2023/12/13 13:11:29;;;;;;;28.05;21.02;;;;;;;;;;5003082;28;25149;-73
2023/12/13 13:13:55;;;;;;;30.38;20.73;;;;;;;;;;5004233;28;25108;-73
2023/12/13 13:16:22;;;;;;;33.97;21.63;;;;;;;;;;5006444;28;25106;-73
2023/12/13 13:18:48;;;;;;;30.33;19.67;;;;;;;;;;5010707;28;25093;-73
2023/12/13 13:21:14;;;;;;;31.38;21.13;;;;;;;;;;5004176;28;25080;-73
2023/12/13 13:23:40;;;;;;;33.55;20.33;;;;;;;;;;5004959;28;25085;-72
2023/12/13 13:26:08;;;;;;;30.20;21.00;;;;;;;;;;5006250;28;25105;-73
2023/12/13 13:28:35;;;;;;;27.75;21.85;;;;;;;;;;5000681;28;25079;-72
2023/12/13 13:31:01;;;;;;;30.48;20.55;;;;;;;;;;5006625;28;25083;-73
2023/12/13 13:33:27;;;;;;;31.98;23.23;;;;;;;;;;5001365;28;25063;-73
2023/12/13 13:35:53;;;;;;;30.45;22.95;;;;;;;;;;5003148;28;25060;-72
2023/12/13 13:38:20;;;;;;;25.60;22.35;;;;;;;;;;5002196;28;25119;-72
2023/12/13 13:40:46;;;;;;;32.17;20.90;;;;;;;;;;5003953;28;25105;-74
2023/12/13 13:43:12;;;;;;;32.25;19.85;;;;;;;;;;5003831;28;25162;-73
2023/12/13 13:45:38;;;;;;;33.90;20.85;;;;;;;;;;5003886;28;25105;-72
2023/12/13 13:48:04;;;;;;;28.90;19.92;;;;;;;;;;5003612;28;25043;-72
2023/12/13 13:50:30;;;;;;;25.48;19.20;;;;;;;;;;5007101;28;25070;-72
2023/12/13 13:52:56;;;;;;;31.67;19.13;;;;;;;;;;5007427;28;25062;-73
2023/12/13 13:55:23;;;;;;;33.45;20.23;;;;;;;;;;5004088;28;25064;-73
2023/12/13 13:57:49;;;;;;;24.35;18.92;;;;;;;;;;5005037;28;25115;-73
2023/12/13 14:00:19;;;;;;;36.58;22.17;;;;;;;;;;5003889;28;25153;-73
2023/12/13 14:02:45;;;;;;;29.73;20.58;;;;;;;;;;5000025;28;25093;-73
2023/12/13 14:05:11;;;;;;;34.17;20.55;;;;;;;;;;5002888;28;25077;-73
2023/12/13 14:07:37;;;;;;;31.13;22.00;;;;;;;;;;5003932;28;25146;-74
2023/12/13 14:10:03;;;;;;;30.65;21.75;;;;;;;;;;5001392;28;25085;-73
2023/12/13 14:12:32;;;;;;;35.33;20.45;;;;;;;;;;5002483;28;25166;-73
2023/12/13 14:14:58;;;;;;;26.58;20.25;;;;;;;;;;5000740;28;25056;-73